Map

Track Data

SID SEASON NUMBER BASIN SUBBASIN NAME ISO_TIME NATURE LAT LON WMO_WIND WMO_PRES WMO_AGENCY TRACK_TYPE DIST2LAND LANDFALL IFLAG USA_AGENCY USA_ATCF_ID USA_LAT USA_LON USA_RECORD USA_STATUS USA_WIND USA_PRES USA_SSHS USA_R34_NE USA_R34_SE USA_R34_SW USA_R34_NW USA_R50_NE USA_R50_SE USA_R50_SW USA_R50_NW USA_R64_NE USA_R64_SE USA_R64_SW USA_R64_NW USA_POCI USA_ROCI USA_RMW USA_EYE TOKYO_LAT TOKYO_LON TOKYO_GRADE TOKYO_WIND TOKYO_PRES TOKYO_R50_DIR TOKYO_R50_LONG TOKYO_R50_SHORT TOKYO_R30_DIR TOKYO_R30_LONG TOKYO_R30_SHORT TOKYO_LAND CMA_LAT CMA_LON CMA_CAT CMA_WIND CMA_PRES HKO_LAT HKO_LON HKO_CAT HKO_WIND HKO_PRES NEWDELHI_LAT NEWDELHI_LON NEWDELHI_GRADE NEWDELHI_WIND NEWDELHI_PRES NEWDELHI_CI NEWDELHI_DP NEWDELHI_POCI REUNION_LAT REUNION_LON REUNION_TYPE REUNION_WIND REUNION_PRES REUNION_TNUM REUNION_CI REUNION_RMW REUNION_R34_NE REUNION_R34_SE REUNION_R34_SW REUNION_R34_NW REUNION_R50_NE REUNION_R50_SE REUNION_R50_SW REUNION_R50_NW REUNION_R64_NE REUNION_R64_SE REUNION_R64_SW REUNION_R64_NW BOM_LAT BOM_LON BOM_TYPE BOM_WIND BOM_PRES BOM_TNUM BOM_CI BOM_RMW BOM_R34_NE BOM_R34_SE BOM_R34_SW BOM_R34_NW BOM_R50_NE BOM_R50_SE BOM_R50_SW BOM_R50_NW BOM_R64_NE BOM_R64_SE BOM_R64_SW BOM_R64_NW BOM_ROCI BOM_POCI BOM_EYE BOM_POS_METHOD BOM_PRES_METHOD NADI_LAT NADI_LON NADI_CAT NADI_WIND NADI_PRES WELLINGTON_LAT WELLINGTON_LON WELLINGTON_WIND WELLINGTON_PRES DS824_LAT DS824_LON DS824_STAGE DS824_WIND DS824_PRES TD9636_LAT TD9636_LON TD9636_STAGE TD9636_WIND TD9636_PRES TD9635_LAT TD9635_LON TD9635_WIND TD9635_PRES TD9635_ROCI NEUMANN_LAT NEUMANN_LON NEUMANN_CLASS NEUMANN_WIND NEUMANN_PRES MLC_LAT MLC_LON MLC_CLASS MLC_WIND MLC_PRES USA_GUST BOM_GUST BOM_GUST_PER REUNION_GUST REUNION_GUST_PER USA_SEAHGT USA_SEARAD_NE USA_SEARAD_SE USA_SEARAD_SW USA_SEARAD_NW STORM_SPEED STORM_DIR
1893272N15325 1893 52 NA NA NOT_NAMED 1893-09-29 00:00:00 TS 15.3000 -35.5000 spur-other 1934 1934 _____________O -1 15.3000 -35.5000 HU 75 8 277
1893272N15325 1893 52 NA NA NOT_NAMED 1893-09-29 03:00:00 TS 15.3500 -35.8999 spur-other 1977 1977 _____________P -1 15.3627 -35.9124 HU 75 8 277
1893272N15325 1893 52 NA NA NOT_NAMED 1893-09-29 06:00:00 TS 15.4000 -36.3000 spur-other 2020 2020 _____________O -1 15.4000 -36.3000 HU 75 7 274
1893272N15325 1893 52 NA NA NOT_NAMED 1893-09-29 09:00:00 TS 15.3999 -36.6501 spur-other 2024 1998 _____________P -1 15.3999 -36.6501 HU 75 7 270
1893272N15325 1893 52 NA NA NOT_NAMED 1893-09-29 12:00:00 TS 15.4000 -37.0000 spur-other 1998 1964 _____________O -1 15.4000 -37.0000 HU 75 7 273
1893272N15325 1893 52 NA NA NOT_NAMED 1893-09-29 15:00:00 TS 15.4425 -37.4000 spur-other 1964 1938 _____________P -1 15.4425 -37.4000 HU 75 8 277
1893272N15325 1893 52 NA NA NOT_NAMED 1893-09-29 18:00:00 TS 15.5000 -37.8000 spur-other 1938 1913 _____________O -1 15.5000 -37.8000 HU 75 7 278
1893272N15325 1893 52 NA NA NOT_NAMED 1893-09-29 21:00:00 TS 15.5499 -38.1500 spur-other 1904 1887 _____________P -1 15.5499 -38.1500 HU 75 7 278
1893272N15325 1893 52 NA NA NOT_NAMED 1893-09-30 00:00:00 TS 15.6000 -38.5000 spur-other 1887 1862 _____________O -1 15.6000 -38.5000 HU 75 7 278
1893272N15325 1893 52 NA NA NOT_NAMED 1893-09-30 03:00:00 TS 15.6575 -38.9000 spur-other 1862 1831 _____________P -1 15.6575 -38.9000 HU 75 8 277
1893272N15325 1893 52 NA NA NOT_NAMED 1893-09-30 06:00:00 TS 15.7000 -39.3000 spur-other 1831 1807 _____________O -1 15.7000 -39.3000 HU 75 7 273
1893272N15325 1893 52 NA NA NOT_NAMED 1893-09-30 09:00:00 TS 15.6999 -39.6651 spur-other 1800 1777 _____________P -1 15.6999 -39.6651 HU 75 7 270
1893272N15325 1893 52 NA NA NOT_NAMED 1893-09-30 12:00:00 TS 15.7000 -40.0000 spur-other 1777 1754 _____________O -1 15.7000 -40.0000 HU 75 6 275
1893272N15325 1893 52 NA NA NOT_NAMED 1893-09-30 15:00:00 TS 15.7499 -40.3074 spur-other 1754 1740 _____________P -1 15.7499 -40.3074 HU 75 6 280
1893272N15325 1893 52 NA NA NOT_NAMED 1893-09-30 18:00:00 TS 15.8000 -40.6000 spur-other 1740 1718 _____________O -1 15.8000 -40.6000 HU 75 6 275
1893272N15325 1893 52 NA NA NOT_NAMED 1893-09-30 21:00:00 TS 15.8000 -40.9076 spur-other 1718 1696 _____________P -1 15.8000 -40.9076 HU 75 6 270
1893272N15325 1893 52 NA NA NOT_NAMED 1893-10-01 00:00:00 TS 15.8000 -41.2000 spur-other 1696 1682 _____________O -1 15.8000 -41.2000 HU 75 5 275
1893272N15325 1893 52 NA NA NOT_NAMED 1893-10-01 03:00:00 TS 15.8424 -41.4425 spur-other 1682 1670 _____________P -1 15.8424 -41.4425 HU 75 5 282
1893272N15325 1893 52 NA NA NOT_NAMED 1893-10-01 06:00:00 TS 15.9000 -41.7000 spur-other 1670 1649 _____________O -1 15.9000 -41.7000 HU 75 6 280
1893272N15325 1893 52 NA NA NOT_NAMED 1893-10-01 09:00:00 TS 15.9426 -42.0500 spur-other 1643 1632 _____________P -1 15.9426 -42.0500 HU 75 7 278
1893272N15325 1893 52 NA NA NOT_NAMED 1893-10-01 12:00:00 TS 16.0000 -42.4000 spur-other 1632 1619 _____________O -1 16.0000 -42.4000 HU 75 6 284
1893272N15325 1893 52 NA NA NOT_NAMED 1893-10-01 15:00:00 TS 16.0924 -42.6575 spur-other 1621 1615 _____________P -1 16.0924 -42.6575 HU 75 5 293
1893272N15325 1893 52 NA NA NOT_NAMED 1893-10-01 18:00:00 TS 16.2000 -42.9000 spur-other 1618 1609 _____________O -1 16.2000 -42.9000 HU 75 5 292
1893272N15325 1893 52 NA NA NOT_NAMED 1893-10-01 21:00:00 TS 16.3000 -43.1850 spur-other 1609 1599 _____________P -1 16.3000 -43.1850 HU 75 6 289
1893272N15325 1893 52 NA NA NOT_NAMED 1893-10-02 00:00:00 TS 16.4000 -43.5000 spur-other 1599 1586 _____________O -1 16.4000 -43.5000 HU 75 7 288
1893272N15325 1893 52 NA NA NOT_NAMED 1893-10-02 03:00:00 TS 16.4999 -43.8350 spur-other 1588 1571 _____________P -1 16.4999 -43.8350 HU 75 7 287
1893272N15325 1893 52 NA NA NOT_NAMED 1893-10-02 06:00:00 TS 16.6000 -44.2000 spur-other 1571 1555 _____________O -1 16.6000 -44.2000 HU 75 8 285
1893272N15325 1893 52 NA NA NOT_NAMED 1893-10-02 09:00:00 TS 16.7000 -44.6000 spur-other 1555 1540 _____________P -1 16.7000 -44.6000 HU 77 8 285
1893272N15325 1893 52 NA NA NOT_NAMED 1893-10-02 12:00:00 TS 16.8000 -45.0000 spur-other 1540 1529 _____________O -1 16.8000 -45.0000 HU 80 7 286
1893272N15325 1893 52 NA NA NOT_NAMED 1893-10-02 15:00:00 TS 16.8999 -45.3501 spur-other 1527 1520 _____________P -1 16.8999 -45.3501 HU 80 7 287
1893272N15325 1893 52 NA NA NOT_NAMED 1893-10-02 18:00:00 TS 17.0000 -45.7000 spur-other 1520 1509 _____________O -1 17.0000 -45.7000 HU 80 7 285
1893272N15325 1893 52 NA NA NOT_NAMED 1893-10-02 21:00:00 TS 17.0924 -46.0851 spur-other 1509 1498 _____________P -1 17.0924 -46.0851 HU 82 8 285
1893272N15325 1893 52 NA NA NOT_NAMED 1893-10-03 00:00:00 TS 17.2000 -46.5000 spur-other 1498 1489 _____________O -1 17.2000 -46.5000 HU 85 9 286
1893272N15325 1893 52 NA NA NOT_NAMED 1893-10-03 03:00:00 TS 17.3350 -46.9500 spur-other 1484 1481 _____________P -1 17.3350 -46.9500 HU 85 9 289
1893272N15325 1893 52 NA NA NOT_NAMED 1893-10-03 06:00:00 TS 17.5000 -47.4000 spur-other 1487 1483 _____________O -1 17.5000 -47.4000 HU 85 9 294
1893272N15325 1893 52 NA NA NOT_NAMED 1893-10-03 09:00:00 TS 17.6923 -47.8001 spur-other 1491 1487 _____________P -1 17.6923 -47.8001 HU 87 9 298
1893272N15325 1893 52 NA NA NOT_NAMED 1893-10-03 12:00:00 TS 17.9000 -48.2000 spur-other 1493 1488 _____________O -1 17.9000 -48.2000 HU 90 9 297
1893272N15325 1893 52 NA NA NOT_NAMED 1893-10-03 15:00:00 TS 18.1075 -48.6500 spur-other 1495 1488 _____________P -1 18.1075 -48.6500 HU 90 9 295
1893272N15325 1893 52 NA NA NOT_NAMED 1893-10-03 18:00:00 TS 18.3000 -49.1000 spur-other 1494 1489 _____________O -1 18.3000 -49.1000 HU 90 9 293
1893272N15325 1893 52 NA NA NOT_NAMED 1893-10-03 21:00:00 TS 18.4499 -49.5077 spur-other 1489 1485 _____________P -1 18.4499 -49.5077 HU 92 8 292
1893272N15325 1893 52 NA NA NOT_NAMED 1893-10-04 00:00:00 TS 18.6000 -49.9000 spur-other 1485 1464 _____________O -1 18.6000 -49.9000 HU 95 8 295
1893272N15325 1893 52 NA NA NOT_NAMED 1893-10-04 03:00:00 TS 18.7999 -50.3000 spur-other 1464 1444 _____________P -1 18.7877 -50.2972 HU 95 9 298
1893272N15325 1893 52 NA NA NOT_NAMED 1893-10-04 06:00:00 TS 19.0000 -50.7000 spur-other 1444 _____________O -1 19.0000 -50.7000 HU 95 9 298

About IBTrACS Database

This database is a web-friendly format of International Best Track Archive for Climate Stewardship (IBTrACS), a global best track data archive curated by NOAA dating back to 1842.

Updated: 2021-10-21